sensor_id;sensor_type;location;lat;lon;timestamp;temperature;humidity
13229;DHT22;6680;53.220;10.402;2023-08-06T00:00:12;15.90;99.90
13229;DHT22;6680;53.220;10.402;2023-08-06T00:02:39;15.90;99.90
13229;DHT22;6680;53.220;10.402;2023-08-06T00:05:06;15.90;99.90
13229;DHT22;6680;53.220;10.402;2023-08-06T00:07:34;15.80;99.90
13229;DHT22;6680;53.220;10.402;2023-08-06T00:10:01;15.80;99.90
13229;DHT22;6680;53.220;10.402;2023-08-06T00:12:27;15.80;99.90
13229;DHT22;6680;53.220;10.402;2023-08-06T00:14:54;15.80;99.90
13229;DHT22;6680;53.220;10.402;2023-08-06T00:17:21;15.70;99.90
13229;DHT22;6680;53.220;10.402;2023-08-06T00:19:47;15.80;99.90
13229;DHT22;6680;53.220;10.402;2023-08-06T00:22:14;15.80;99.90
13229;DHT22;6680;53.220;10.402;2023-08-06T00:24:42;15.90;99.90
13229;DHT22;6680;53.220;10.402;2023-08-06T00:27:09;15.90;99.90
13229;DHT22;6680;53.220;10.402;2023-08-06T00:29:36;16.00;99.90
13229;DHT22;6680;53.220;10.402;2023-08-06T00:32:03;16.00;99.90
13229;DHT22;6680;53.220;10.402;2023-08-06T00:34:30;16.00;99.90
13229;DHT22;6680;53.220;10.402;2023-08-06T00:36:56;16.10;99.90
13229;DHT22;6680;53.220;10.402;2023-08-06T00:39:23;16.10;99.90
13229;DHT22;6680;53.220;10.402;2023-08-06T00:41:51;16.10;99.90
13229;DHT22;6680;53.220;10.402;2023-08-06T00:44:17;16.10;99.90
13229;DHT22;6680;53.220;10.402;2023-08-06T00:46:44;16.10;99.90
13229;DHT22;6680;53.220;10.402;2023-08-06T00:49:11;16.10;99.90
13229;DHT22;6680;53.220;10.402;2023-08-06T00:51:38;16.10;99.90
13229;DHT22;6680;53.220;10.402;2023-08-06T00:54:04;16.20;99.90
13229;DHT22;6680;53.220;10.402;2023-08-06T00:56:32;16.10;99.90
13229;DHT22;6680;53.220;10.402;2023-08-06T00:59:02;16.10;99.90
13229;DHT22;6680;53.220;10.402;2023-08-06T01:01:29;16.10;99.90
13229;DHT22;6680;53.220;10.402;2023-08-06T01:03:56;16.30;99.90
13229;DHT22;6680;53.220;10.402;2023-08-06T01:06:35;16.10;99.90
13229;DHT22;6680;53.220;10.402;2023-08-06T01:09:11;16.10;99.90
13229;DHT22;6680;53.220;10.402;2023-08-06T01:11:49;16.00;99.90
13229;DHT22;6680;53.220;10.402;2023-08-06T01:14:28;16.00;99.90
13229;DHT22;6680;53.220;10.402;2023-08-06T01:16:58;16.00;99.90
13229;DHT22;6680;53.220;10.402;2023-08-06T01:19:25;15.90;99.90
13229;DHT22;6680;53.220;10.402;2023-08-06T01:21:53;15.90;99.90
13229;DHT22;6680;53.220;10.402;2023-08-06T01:24:20;15.90;99.90
13229;DHT22;6680;53.220;10.402;2023-08-06T01:26:54;15.80;99.90
13229;DHT22;6680;53.220;10.402;2023-08-06T01:29:25;15.80;99.90
13229;DHT22;6680;53.220;10.402;2023-08-06T01:31:55;15.70;99.90
13229;DHT22;6680;53.220;10.402;2023-08-06T01:34:24;15.70;99.90
13229;DHT22;6680;53.220;10.402;2023-08-06T01:36:53;15.70;99.90
13229;DHT22;6680;53.220;10.402;2023-08-06T01:39:20;15.70;99.90
13229;DHT22;6680;53.220;10.402;2023-08-06T01:41:47;15.60;99.90
13229;DHT22;6680;53.220;10.402;2023-08-06T01:44:14;15.60;99.90
13229;DHT22;6680;53.220;10.402;2023-08-06T01:46:40;15.60;99.90
13229;DHT22;6680;53.220;10.402;2023-08-06T01:49:07;15.60;99.90
13229;DHT22;6680;53.220;10.402;2023-08-06T01:51:34;15.70;99.90
13229;DHT22;6680;53.220;10.402;2023-08-06T01:54:02;15.60;99.90
13229;DHT22;6680;53.220;10.402;2023-08-06T01:56:28;15.60;99.90
13229;DHT22;6680;53.220;10.402;2023-08-06T01:58:55;15.60;99.90
13229;DHT22;6680;53.220;10.402;2023-08-06T02:01:22;15.60;99.90
13229;DHT22;6680;53.220;10.402;2023-08-06T02:03:48;15.50;99.90
13229;DHT22;6680;53.220;10.402;2023-08-06T02:06:15;15.60;99.90
13229;DHT22;6680;53.220;10.402;2023-08-06T02:08:41;15.60;99.90
13229;DHT22;6680;53.220;10.402;2023-08-06T02:11:09;15.60;99.90
13229;DHT22;6680;53.220;10.402;2023-08-06T02:13:36;15.40;99.90
13229;DHT22;6680;53.220;10.402;2023-08-06T02:16:03;15.80;99.90
13229;DHT22;6680;53.220;10.402;2023-08-06T02:18:30;15.70;99.90
13229;DHT22;6680;53.220;10.402;2023-08-06T02:20:57;15.60;99.90
13229;DHT22;6680;53.220;10.402;2023-08-06T02:23:24;15.60;99.90
13229;DHT22;6680;53.220;10.402;2023-08-06T02:25:57;15.60;99.90
13229;DHT22;6680;53.220;10.402;2023-08-06T02:28:25;15.60;99.90
13229;DHT22;6680;53.220;10.402;2023-08-06T02:30:52;15.60;99.90
13229;DHT22;6680;53.220;10.402;2023-08-06T02:33:19;15.60;99.90
13229;DHT22;6680;53.220;10.402;2023-08-06T02:35:45;15.70;99.90
13229;DHT22;6680;53.220;10.402;2023-08-06T02:38:12;15.70;99.90
13229;DHT22;6680;53.220;10.402;2023-08-06T02:40:43;15.70;99.90
13229;DHT22;6680;53.220;10.402;2023-08-06T02:43:10;15.70;99.90
13229;DHT22;6680;53.220;10.402;2023-08-06T02:45:38;15.70;99.90
13229;DHT22;6680;53.220;10.402;2023-08-06T02:48:05;15.70;99.90
13229;DHT22;6680;53.220;10.402;2023-08-06T02:50:37;15.70;99.90
13229;DHT22;6680;53.220;10.402;2023-08-06T02:53:04;15.80;99.90
13229;DHT22;6680;53.220;10.402;2023-08-06T02:55:31;15.50;99.90
13229;DHT22;6680;53.220;10.402;2023-08-06T02:57:57;15.80;99.90
13229;DHT22;6680;53.220;10.402;2023-08-06T03:00:24;15.80;99.90
13229;DHT22;6680;53.220;10.402;2023-08-06T03:02:52;15.80;99.90
13229;DHT22;6680;53.220;10.402;2023-08-06T03:05:19;15.80;99.90
13229;DHT22;6680;53.220;10.402;2023-08-06T03:07:46;15.80;99.90
13229;DHT22;6680;53.220;10.402;2023-08-06T03:10:14;15.90;99.90
13229;DHT22;6680;53.220;10.402;2023-08-06T03:12:40;15.90;99.90
13229;DHT22;6680;53.220;10.402;2023-08-06T03:15:08;15.90;99.90
13229;DHT22;6680;53.220;10.402;2023-08-06T03:17:35;15.80;99.90
13229;DHT22;6680;53.220;10.402;2023-08-06T03:20:03;15.80;99.90
13229;DHT22;6680;53.220;10.402;2023-08-06T03:22:30;15.80;99.90
13229;DHT22;6680;53.220;10.402;2023-08-06T03:24:57;15.80;99.90
13229;DHT22;6680;53.220;10.402;2023-08-06T03:27:23;15.60;99.90
13229;DHT22;6680;53.220;10.402;2023-08-06T03:29:50;15.60;99.90
13229;DHT22;6680;53.220;10.402;2023-08-06T03:32:17;15.50;99.90
13229;DHT22;6680;53.220;10.402;2023-08-06T03:34:43;15.60;99.90
13229;DHT22;6680;53.220;10.402;2023-08-06T03:37:11;15.60;99.90
13229;DHT22;6680;53.220;10.402;2023-08-06T03:39:38;15.60;99.90
13229;DHT22;6680;53.220;10.402;2023-08-06T03:42:05;15.60;99.90
13229;DHT22;6680;53.220;10.402;2023-08-06T03:44:32;15.60;99.90
13229;DHT22;6680;53.220;10.402;2023-08-06T03:46:58;15.60;99.90
13229;DHT22;6680;53.220;10.402;2023-08-06T03:49:25;15.60;99.90
13229;DHT22;6680;53.220;10.402;2023-08-06T03:51:51;15.60;99.90
13229;DHT22;6680;53.220;10.402;2023-08-06T03:54:19;15.60;99.90
13229;DHT22;6680;53.220;10.402;2023-08-06T03:56:46;15.50;99.90
13229;DHT22;6680;53.220;10.402;2023-08-06T03:59:12;15.50;99.90
13229;DHT22;6680;53.220;10.402;2023-08-06T04:01:42;15.40;99.90
13229;DHT22;6680;53.220;10.402;2023-08-06T04:04:11;15.10;99.90
13229;DHT22;6680;53.220;10.402;2023-08-06T04:06:38;15.40;99.90
13229;DHT22;6680;53.220;10.402;2023-08-06T04:09:04;15.40;99.90
13229;DHT22;6680;53.220;10.402;2023-08-06T04:11:32;15.40;99.90
13229;DHT22;6680;53.220;10.402;2023-08-06T04:13:59;15.40;99.90
13229;DHT22;6680;53.220;10.402;2023-08-06T04:16:26;15.40;99.90
13229;DHT22;6680;53.220;10.402;2023-08-06T04:18:52;15.40;99.90
13229;DHT22;6680;53.220;10.402;2023-08-06T04:21:20;15.50;99.90
13229;DHT22;6680;53.220;10.402;2023-08-06T04:23:47;15.40;99.90
13229;DHT22;6680;53.220;10.402;2023-08-06T04:26:14;15.60;99.90
13229;DHT22;6680;53.220;10.402;2023-08-06T04:28:42;15.50;99.90
13229;DHT22;6680;53.220;10.402;2023-08-06T04:31:09;15.50;99.90
13229;DHT22;6680;53.220;10.402;2023-08-06T04:33:35;15.50;99.90
13229;DHT22;6680;53.220;10.402;2023-08-06T04:36:02;15.50;99.90
13229;DHT22;6680;53.220;10.402;2023-08-06T04:38:29;15.50;99.90
13229;DHT22;6680;53.220;10.402;2023-08-06T04:40:55;15.40;99.90
13229;DHT22;6680;53.220;10.402;2023-08-06T04:43:22;15.40;99.90
13229;DHT22;6680;53.220;10.402;2023-08-06T04:45:53;15.40;99.90
13229;DHT22;6680;53.220;10.402;2023-08-06T04:48:20;15.40;99.90
13229;DHT22;6680;53.220;10.402;2023-08-06T04:50:47;15.40;99.90
13229;DHT22;6680;53.220;10.402;2023-08-06T04:53:14;15.40;99.90
13229;DHT22;6680;53.220;10.402;2023-08-06T04:55:41;15.50;99.90
13229;DHT22;6680;53.220;10.402;2023-08-06T04:58:09;15.50;99.90
13229;DHT22;6680;53.220;10.402;2023-08-06T05:00:36;15.50;99.90
13229;DHT22;6680;53.220;10.402;2023-08-06T05:03:06;15.50;99.90
13229;DHT22;6680;53.220;10.402;2023-08-06T05:05:32;15.50;99.90
13229;DHT22;6680;53.220;10.402;2023-08-06T05:07:59;15.50;99.90
13229;DHT22;6680;53.220;10.402;2023-08-06T05:10:26;15.50;99.90
13229;DHT22;6680;53.220;10.402;2023-08-06T05:12:53;15.60;99.90
13229;DHT22;6680;53.220;10.402;2023-08-06T05:15:20;15.70;99.90
13229;DHT22;6680;53.220;10.402;2023-08-06T05:17:46;15.70;99.90
13229;DHT22;6680;53.220;10.402;2023-08-06T05:20:14;15.70;99.90
13229;DHT22;6680;53.220;10.402;2023-08-06T05:22:41;15.70;99.90
13229;DHT22;6680;53.220;10.402;2023-08-06T05:25:08;15.80;99.90
13229;DHT22;6680;53.220;10.402;2023-08-06T05:27:35;15.80;99.90
13229;DHT22;6680;53.220;10.402;2023-08-06T05:30:01;15.80;99.90
13229;DHT22;6680;53.220;10.402;2023-08-06T05:32:28;15.80;99.90
13229;DHT22;6680;53.220;10.402;2023-08-06T05:34:55;15.80;99.90
13229;DHT22;6680;53.220;10.402;2023-08-06T05:37:22;15.80;99.90
13229;DHT22;6680;53.220;10.402;2023-08-06T05:39:49;15.80;99.90
13229;DHT22;6680;53.220;10.402;2023-08-06T05:42:16;15.80;99.90
13229;DHT22;6680;53.220;10.402;2023-08-06T05:44:43;15.80;99.90
13229;DHT22;6680;53.220;10.402;2023-08-06T05:47:09;15.80;99.90
13229;DHT22;6680;53.220;10.402;2023-08-06T05:49:36;15.90;99.90
13229;DHT22;6680;53.220;10.402;2023-08-06T05:52:04;15.90;99.90
13229;DHT22;6680;53.220;10.402;2023-08-06T05:54:35;16.00;99.90
13229;DHT22;6680;53.220;10.402;2023-08-06T05:57:01;16.10;99.90
13229;DHT22;6680;53.220;10.402;2023-08-06T05:59:28;16.10;99.90
13229;DHT22;6680;53.220;10.402;2023-08-06T06:01:55;16.20;99.90
13229;DHT22;6680;53.220;10.402;2023-08-06T06:04:21;16.20;99.90
13229;DHT22;6680;53.220;10.402;2023-08-06T06:06:48;16.30;99.90
13229;DHT22;6680;53.220;10.402;2023-08-06T06:09:14;16.20;99.90
13229;DHT22;6680;53.220;10.402;2023-08-06T06:11:42;16.30;99.90
13229;DHT22;6680;53.220;10.402;2023-08-06T06:14:09;16.30;99.90
13229;DHT22;6680;53.220;10.402;2023-08-06T06:16:36;16.30;99.90
13229;DHT22;6680;53.220;10.402;2023-08-06T06:19:02;16.30;99.90
13229;DHT22;6680;53.220;10.402;2023-08-06T06:21:29;16.50;99.90
13229;DHT22;6680;53.220;10.402;2023-08-06T06:23:55;16.30;99.90
13229;DHT22;6680;53.220;10.402;2023-08-06T06:26:22;16.30;99.90
13229;DHT22;6680;53.220;10.402;2023-08-06T06:28:50;16.40;99.90
13229;DHT22;6680;53.220;10.402;2023-08-06T06:31:17;16.50;99.90
13229;DHT22;6680;53.220;10.402;2023-08-06T06:33:43;16.60;99.90
13229;DHT22;6680;53.220;10.402;2023-08-06T06:36:10;16.50;99.90
13229;DHT22;6680;53.220;10.402;2023-08-06T06:38:37;16.60;99.90
13229;DHT22;6680;53.220;10.402;2023-08-06T06:41:04;16.50;99.90
13229;DHT22;6680;53.220;10.402;2023-08-06T06:43:30;16.90;99.90
13229;DHT22;6680;53.220;10.402;2023-08-06T06:45:59;16.60;99.90
13229;DHT22;6680;53.220;10.402;2023-08-06T06:48:27;16.60;99.90
13229;DHT22;6680;53.220;10.402;2023-08-06T06:50:54;16.70;99.90
13229;DHT22;6680;53.220;10.402;2023-08-06T06:53:21;16.60;99.90
13229;DHT22;6680;53.220;10.402;2023-08-06T06:55:52;16.60;99.90
13229;DHT22;6680;53.220;10.402;2023-08-06T06:58:19;16.60;99.90
13229;DHT22;6680;53.220;10.402;2023-08-06T07:00:46;16.60;99.90
13229;DHT22;6680;53.220;10.402;2023-08-06T07:03:14;16.60;99.90
13229;DHT22;6680;53.220;10.402;2023-08-06T07:05:41;16.60;99.90
13229;DHT22;6680;53.220;10.402;2023-08-06T07:08:08;16.70;99.90
13229;DHT22;6680;53.220;10.402;2023-08-06T07:10:35;16.70;99.90
13229;DHT22;6680;53.220;10.402;2023-08-06T07:13:01;16.70;99.90
13229;DHT22;6680;53.220;10.402;2023-08-06T07:15:28;16.70;99.90
13229;DHT22;6680;53.220;10.402;2023-08-06T07:17:54;16.70;99.90
13229;DHT22;6680;53.220;10.402;2023-08-06T07:20:22;16.80;99.90
13229;DHT22;6680;53.220;10.402;2023-08-06T07:22:49;16.80;99.90
13229;DHT22;6680;53.220;10.402;2023-08-06T07:25:17;16.80;99.90
13229;DHT22;6680;53.220;10.402;2023-08-06T07:27:43;16.70;99.90
13229;DHT22;6680;53.220;10.402;2023-08-06T07:30:10;16.80;99.90
13229;DHT22;6680;53.220;10.402;2023-08-06T07:32:37;16.90;99.90
13229;DHT22;6680;53.220;10.402;2023-08-06T07:35:05;17.10;99.90
13229;DHT22;6680;53.220;10.402;2023-08-06T07:37:34;17.30;99.90
13229;DHT22;6680;53.220;10.402;2023-08-06T07:40:01;17.50;99.90
13229;DHT22;6680;53.220;10.402;2023-08-06T07:42:28;17.60;99.90
13229;DHT22;6680;53.220;10.402;2023-08-06T07:44:56;17.70;99.90
13229;DHT22;6680;53.220;10.402;2023-08-06T07:47:23;17.90;99.90
13229;DHT22;6680;53.220;10.402;2023-08-06T07:49:49;18.00;99.90
13229;DHT22;6680;53.220;10.402;2023-08-06T07:52:16;18.00;99.90
13229;DHT22;6680;53.220;10.402;2023-08-06T07:54:44;18.30;99.90
13229;DHT22;6680;53.220;10.402;2023-08-06T07:57:10;18.00;99.90
13229;DHT22;6680;53.220;10.402;2023-08-06T07:59:37;18.20;99.90
13229;DHT22;6680;53.220;10.402;2023-08-06T08:02:05;18.30;99.90
13229;DHT22;6680;53.220;10.402;2023-08-06T08:04:31;18.40;99.90
13229;DHT22;6680;53.220;10.402;2023-08-06T08:06:58;18.50;99.90
13229;DHT22;6680;53.220;10.402;2023-08-06T08:09:24;18.60;99.90
13229;DHT22;6680;53.220;10.402;2023-08-06T08:11:52;18.60;99.90
13229;DHT22;6680;53.220;10.402;2023-08-06T08:14:19;18.70;99.90
13229;DHT22;6680;53.220;10.402;2023-08-06T08:16:46;18.70;99.90
13229;DHT22;6680;53.220;10.402;2023-08-06T08:19:13;18.70;99.90
13229;DHT22;6680;53.220;10.402;2023-08-06T08:21:39;18.80;99.90
13229;DHT22;6680;53.220;10.402;2023-08-06T08:24:06;18.80;99.90
13229;DHT22;6680;53.220;10.402;2023-08-06T08:26:32;18.90;99.90
13229;DHT22;6680;53.220;10.402;2023-08-06T08:29:00;19.00;99.90
13229;DHT22;6680;53.220;10.402;2023-08-06T08:31:27;18.80;99.90
13229;DHT22;6680;53.220;10.402;2023-08-06T08:33:54;19.00;99.90
13229;DHT22;6680;53.220;10.402;2023-08-06T08:36:20;18.80;99.90
13229;DHT22;6680;53.220;10.402;2023-08-06T08:38:47;18.80;99.90
13229;DHT22;6680;53.220;10.402;2023-08-06T08:41:15;18.70;99.90
13229;DHT22;6680;53.220;10.402;2023-08-06T08:43:42;18.50;99.90
13229;DHT22;6680;53.220;10.402;2023-08-06T08:46:11;18.40;99.90
13229;DHT22;6680;53.220;10.402;2023-08-06T08:48:38;18.30;99.90
13229;DHT22;6680;53.220;10.402;2023-08-06T08:51:06;18.10;99.90
13229;DHT22;6680;53.220;10.402;2023-08-06T08:53:35;18.00;99.90
13229;DHT22;6680;53.220;10.402;2023-08-06T08:56:05;17.80;99.90
13229;DHT22;6680;53.220;10.402;2023-08-06T08:58:32;17.70;99.90
13229;DHT22;6680;53.220;10.402;2023-08-06T09:00:59;17.60;99.90
13229;DHT22;6680;53.220;10.402;2023-08-06T09:03:28;17.60;99.90
13229;DHT22;6680;53.220;10.402;2023-08-06T09:05:55;17.60;99.90
13229;DHT22;6680;53.220;10.402;2023-08-06T09:08:27;17.60;99.90
13229;DHT22;6680;53.220;10.402;2023-08-06T09:10:58;17.60;99.90
13229;DHT22;6680;53.220;10.402;2023-08-06T09:13:25;17.60;99.90
13229;DHT22;6680;53.220;10.402;2023-08-06T09:15:52;17.60;99.90
13229;DHT22;6680;53.220;10.402;2023-08-06T09:18:25;17.70;99.90
13229;DHT22;6680;53.220;10.402;2023-08-06T09:20:54;17.70;99.90
13229;DHT22;6680;53.220;10.402;2023-08-06T09:23:27;17.80;99.90
13229;DHT22;6680;53.220;10.402;2023-08-06T09:25:55;17.90;99.90
13229;DHT22;6680;53.220;10.402;2023-08-06T09:28:21;18.00;99.90
13229;DHT22;6680;53.220;10.402;2023-08-06T09:30:50;18.00;99.90
13229;DHT22;6680;53.220;10.402;2023-08-06T09:33:18;18.00;99.90
13229;DHT22;6680;53.220;10.402;2023-08-06T09:35:46;18.00;99.90
13229;DHT22;6680;53.220;10.402;2023-08-06T09:38:14;18.00;99.90
13229;DHT22;6680;53.220;10.402;2023-08-06T09:40:41;18.00;99.90
13229;DHT22;6680;53.220;10.402;2023-08-06T09:43:08;18.00;99.90
13229;DHT22;6680;53.220;10.402;2023-08-06T09:45:35;18.20;99.90
13229;DHT22;6680;53.220;10.402;2023-08-06T09:48:03;18.30;99.90
13229;DHT22;6680;53.220;10.402;2023-08-06T09:50:31;18.40;99.90
13229;DHT22;6680;53.220;10.402;2023-08-06T09:52:59;18.60;99.90
13229;DHT22;6680;53.220;10.402;2023-08-06T09:55:27;18.60;99.90
13229;DHT22;6680;53.220;10.402;2023-08-06T09:57:54;18.60;99.90
13229;DHT22;6680;53.220;10.402;2023-08-06T10:00:22;18.60;99.90
13229;DHT22;6680;53.220;10.402;2023-08-06T10:02:49;18.70;99.90
13229;DHT22;6680;53.220;10.402;2023-08-06T10:05:21;18.70;99.90
13229;DHT22;6680;53.220;10.402;2023-08-06T10:07:49;18.70;99.90
13229;DHT22;6680;53.220;10.402;2023-08-06T10:10:16;18.70;99.90
13229;DHT22;6680;53.220;10.402;2023-08-06T10:12:47;18.60;99.90
13229;DHT22;6680;53.220;10.402;2023-08-06T10:15:17;18.40;99.90
13229;DHT22;6680;53.220;10.402;2023-08-06T10:17:47;18.60;99.90
13229;DHT22;6680;53.220;10.402;2023-08-06T10:20:15;18.60;99.90
13229;DHT22;6680;53.220;10.402;2023-08-06T10:22:42;19.10;99.90
13229;DHT22;6680;53.220;10.402;2023-08-06T10:25:09;19.00;99.90
13229;DHT22;6680;53.220;10.402;2023-08-06T10:27:40;19.10;99.90
13229;DHT22;6680;53.220;10.402;2023-08-06T10:30:23;19.20;99.90
13229;DHT22;6680;53.220;10.402;2023-08-06T10:32:50;19.30;99.90
13229;DHT22;6680;53.220;10.402;2023-08-06T10:35:37;19.30;99.90
13229;DHT22;6680;53.220;10.402;2023-08-06T10:38:06;19.40;99.90
13229;DHT22;6680;53.220;10.402;2023-08-06T10:40:34;19.50;99.90
13229;DHT22;6680;53.220;10.402;2023-08-06T10:43:01;19.40;99.90
13229;DHT22;6680;53.220;10.402;2023-08-06T10:45:29;19.40;99.90
13229;DHT22;6680;53.220;10.402;2023-08-06T10:47:56;19.40;99.90
13229;DHT22;6680;53.220;10.402;2023-08-06T10:50:24;19.40;99.90
13229;DHT22;6680;53.220;10.402;2023-08-06T10:52:51;19.50;99.90
13229;DHT22;6680;53.220;10.402;2023-08-06T10:55:25;19.60;99.90
13229;DHT22;6680;53.220;10.402;2023-08-06T10:57:52;19.70;99.90
13229;DHT22;6680;53.220;10.402;2023-08-06T11:00:20;19.90;99.90
13229;DHT22;6680;53.220;10.402;2023-08-06T11:02:51;19.90;99.90
13229;DHT22;6680;53.220;10.402;2023-08-06T11:05:19;20.00;99.90
13229;DHT22;6680;53.220;10.402;2023-08-06T11:07:45;20.30;99.90
13229;DHT22;6680;53.220;10.402;2023-08-06T11:10:14;20.50;99.90
13229;DHT22;6680;53.220;10.402;2023-08-06T11:12:40;20.60;99.90
13229;DHT22;6680;53.220;10.402;2023-08-06T11:15:08;20.60;99.90
13229;DHT22;6680;53.220;10.402;2023-08-06T11:17:37;20.60;99.90
13229;DHT22;6680;53.220;10.402;2023-08-06T11:20:07;20.60;99.90
13229;DHT22;6680;53.220;10.402;2023-08-06T11:22:36;20.30;99.90
13229;DHT22;6680;53.220;10.402;2023-08-06T11:25:03;20.20;99.90
13229;DHT22;6680;53.220;10.402;2023-08-06T11:27:29;20.00;99.90
13229;DHT22;6680;53.220;10.402;2023-08-06T11:29:56;19.90;99.90
13229;DHT22;6680;53.220;10.402;2023-08-06T11:32:23;19.80;99.90
13229;DHT22;6680;53.220;10.402;2023-08-06T11:34:50;19.70;99.90
13229;DHT22;6680;53.220;10.402;2023-08-06T11:37:20;19.70;99.90
13229;DHT22;6680;53.220;10.402;2023-08-06T11:39:47;19.80;99.90
13229;DHT22;6680;53.220;10.402;2023-08-06T11:42:14;19.80;99.90
13229;DHT22;6680;53.220;10.402;2023-08-06T11:44:41;19.80;99.90
13229;DHT22;6680;53.220;10.402;2023-08-06T11:47:13;19.80;99.90
13229;DHT22;6680;53.220;10.402;2023-08-06T11:49:44;19.70;99.90
13229;DHT22;6680;53.220;10.402;2023-08-06T11:52:18;19.60;99.90
13229;DHT22;6680;53.220;10.402;2023-08-06T11:54:46;19.60;99.90
13229;DHT22;6680;53.220;10.402;2023-08-06T11:57:14;19.80;99.90
13229;DHT22;6680;53.220;10.402;2023-08-06T11:59:41;19.90;99.90
13229;DHT22;6680;53.220;10.402;2023-08-06T12:02:09;20.00;99.90
13229;DHT22;6680;53.220;10.402;2023-08-06T12:05:02;20.20;99.90
13229;DHT22;6680;53.220;10.402;2023-08-06T12:07:31;20.30;99.90
13229;DHT22;6680;53.220;10.402;2023-08-06T12:09:59;20.20;99.90
13229;DHT22;6680;53.220;10.402;2023-08-06T12:12:25;20.30;99.90
13229;DHT22;6680;53.220;10.402;2023-08-06T12:14:52;20.30;99.90
13229;DHT22;6680;53.220;10.402;2023-08-06T12:19:46;20.40;99.90
13229;DHT22;6680;53.220;10.402;2023-08-06T12:22:14;20.50;99.90
13229;DHT22;6680;53.220;10.402;2023-08-06T12:24:42;20.70;99.90
13229;DHT22;6680;53.220;10.402;2023-08-06T12:27:09;20.90;99.90
13229;DHT22;6680;53.220;10.402;2023-08-06T12:29:37;21.00;99.90
13229;DHT22;6680;53.220;10.402;2023-08-06T12:32:04;21.10;99.90
13229;DHT22;6680;53.220;10.402;2023-08-06T12:34:31;21.00;99.90
13229;DHT22;6680;53.220;10.402;2023-08-06T12:36:58;21.00;99.90
13229;DHT22;6680;53.220;10.402;2023-08-06T12:39:24;21.10;99.90
13229;DHT22;6680;53.220;10.402;2023-08-06T12:41:56;21.10;99.90
13229;DHT22;6680;53.220;10.402;2023-08-06T12:44:23;21.10;99.90
13229;DHT22;6680;53.220;10.402;2023-08-06T12:46:50;21.10;99.90
13229;DHT22;6680;53.220;10.402;2023-08-06T12:49:17;21.00;99.90
13229;DHT22;6680;53.220;10.402;2023-08-06T12:51:46;21.00;99.90
13229;DHT22;6680;53.220;10.402;2023-08-06T12:54:13;21.20;99.90
13229;DHT22;6680;53.220;10.402;2023-08-06T12:56:39;21.00;99.90
13229;DHT22;6680;53.220;10.402;2023-08-06T12:59:07;20.90;99.90
13229;DHT22;6680;53.220;10.402;2023-08-06T13:01:34;21.00;99.90
13229;DHT22;6680;53.220;10.402;2023-08-06T13:04:00;20.80;99.90
13229;DHT22;6680;53.220;10.402;2023-08-06T13:06:27;20.80;99.90
13229;DHT22;6680;53.220;10.402;2023-08-06T13:08:54;20.70;99.90
13229;DHT22;6680;53.220;10.402;2023-08-06T13:11:20;20.70;99.90
13229;DHT22;6680;53.220;10.402;2023-08-06T13:13:47;20.80;99.90
13229;DHT22;6680;53.220;10.402;2023-08-06T13:16:15;20.80;99.90
13229;DHT22;6680;53.220;10.402;2023-08-06T13:18:42;20.90;99.90
13229;DHT22;6680;53.220;10.402;2023-08-06T13:21:09;21.00;99.90
13229;DHT22;6680;53.220;10.402;2023-08-06T13:26:02;21.00;99.90
13229;DHT22;6680;53.220;10.402;2023-08-06T13:28:29;21.00;99.90
13229;DHT22;6680;53.220;10.402;2023-08-06T13:30:55;21.00;99.90
13229;DHT22;6680;53.220;10.402;2023-08-06T13:33:23;21.00;99.90
13229;DHT22;6680;53.220;10.402;2023-08-06T13:35:52;20.80;99.90
13229;DHT22;6680;53.220;10.402;2023-08-06T13:38:18;20.80;99.90
13229;DHT22;6680;53.220;10.402;2023-08-06T13:40:45;20.70;99.90
13229;DHT22;6680;53.220;10.402;2023-08-06T13:43:12;20.70;99.90
13229;DHT22;6680;53.220;10.402;2023-08-06T13:45:38;20.70;99.90
13229;DHT22;6680;53.220;10.402;2023-08-06T13:48:05;20.60;99.90
13229;DHT22;6680;53.220;10.402;2023-08-06T13:50:33;20.40;99.90
13229;DHT22;6680;53.220;10.402;2023-08-06T13:52:59;20.40;99.90
13229;DHT22;6680;53.220;10.402;2023-08-06T13:57:55;20.30;99.90
13229;DHT22;6680;53.220;10.402;2023-08-06T14:00:21;20.30;99.90
13229;DHT22;6680;53.220;10.402;2023-08-06T14:02:48;20.30;99.90
13229;DHT22;6680;53.220;10.402;2023-08-06T14:05:14;20.30;99.90
13229;DHT22;6680;53.220;10.402;2023-08-06T14:07:42;20.30;99.90
13229;DHT22;6680;53.220;10.402;2023-08-06T14:12:36;20.30;99.90
13229;DHT22;6680;53.220;10.402;2023-08-06T14:15:03;20.20;99.90
13229;DHT22;6680;53.220;10.402;2023-08-06T14:17:30;20.10;99.90
13229;DHT22;6680;53.220;10.402;2023-08-06T14:19:56;20.20;99.90
13229;DHT22;6680;53.220;10.402;2023-08-06T14:22:23;20.20;99.90
13229;DHT22;6680;53.220;10.402;2023-08-06T14:24:51;20.20;99.90
13229;DHT22;6680;53.220;10.402;2023-08-06T14:27:18;20.30;99.90
13229;DHT22;6680;53.220;10.402;2023-08-06T14:29:45;20.50;99.90
13229;DHT22;6680;53.220;10.402;2023-08-06T14:32:12;20.60;99.90
13229;DHT22;6680;53.220;10.402;2023-08-06T14:34:38;20.60;99.90
13229;DHT22;6680;53.220;10.402;2023-08-06T14:37:05;20.60;99.90
13229;DHT22;6680;53.220;10.402;2023-08-06T14:39:32;20.70;99.90
13229;DHT22;6680;53.220;10.402;2023-08-06T14:42:00;20.60;99.90
13229;DHT22;6680;53.220;10.402;2023-08-06T14:44:27;20.60;99.90
13229;DHT22;6680;53.220;10.402;2023-08-06T14:46:54;20.70;99.90
13229;DHT22;6680;53.220;10.402;2023-08-06T14:49:21;20.80;99.90
13229;DHT22;6680;53.220;10.402;2023-08-06T14:51:47;20.70;99.90
13229;DHT22;6680;53.220;10.402;2023-08-06T14:54:14;20.80;99.90
13229;DHT22;6680;53.220;10.402;2023-08-06T14:56:40;20.70;99.90
13229;DHT22;6680;53.220;10.402;2023-08-06T14:59:08;20.70;99.90
13229;DHT22;6680;53.220;10.402;2023-08-06T15:01:35;20.70;99.90
13229;DHT22;6680;53.220;10.402;2023-08-06T15:04:02;20.60;99.90
13229;DHT22;6680;53.220;10.402;2023-08-06T15:06:28;20.60;99.90
13229;DHT22;6680;53.220;10.402;2023-08-06T15:08:55;20.60;99.90
13229;DHT22;6680;53.220;10.402;2023-08-06T15:11:26;20.70;99.90
13229;DHT22;6680;53.220;10.402;2023-08-06T15:13:53;20.50;99.90
13229;DHT22;6680;53.220;10.402;2023-08-06T15:16:21;20.50;99.90
13229;DHT22;6680;53.220;10.402;2023-08-06T15:18:47;20.60;99.90
13229;DHT22;6680;53.220;10.402;2023-08-06T15:21:14;20.70;99.90
13229;DHT22;6680;53.220;10.402;2023-08-06T15:23:41;20.80;99.90
13229;DHT22;6680;53.220;10.402;2023-08-06T15:26:08;20.80;99.90
13229;DHT22;6680;53.220;10.402;2023-08-06T15:28:35;20.90;99.90
13229;DHT22;6680;53.220;10.402;2023-08-06T15:31:02;20.80;99.90
13229;DHT22;6680;53.220;10.402;2023-08-06T15:33:32;20.70;99.90
13229;DHT22;6680;53.220;10.402;2023-08-06T15:35:59;20.70;99.90
13229;DHT22;6680;53.220;10.402;2023-08-06T15:38:26;20.50;99.90
13229;DHT22;6680;53.220;10.402;2023-08-06T15:40:53;20.10;99.90